Terminal Aerodrome Forecast
Issued by NWS

Home | Current Version | Previous Version | Text Only | Print | Product List | Glossary On
Versions: 1 2 3 4 5 6 7 8 9 10
259
FTUS46 KSTO 241120
TAFSMF
TAF
KSMF 241120Z 2412/2512 17010KT P6SM OVC080 PROB30 2421/2501
      18015G25KT 6SM -SHRA OVC030=

USA.gov is the U.S. government's official web portal to all federal, state and local government web resources and services.